createdAt,value
2023-04-07T00:00:04.421Z,0.000000
2023-04-07T00:01:01.200Z,0.000000
2023-04-07T00:02:02.212Z,0.000000
2023-04-07T00:03:01.287Z,0.000000
2023-04-07T00:04:01.575Z,0.000000
2023-04-07T00:05:03.988Z,0.000000
2023-04-07T00:06:02.175Z,0.000000
2023-04-07T00:07:01.234Z,0.000000
2023-04-07T00:08:00.372Z,0.000000
2023-04-07T00:09:00.245Z,0.000000
2023-04-07T00:10:03.765Z,0.000000
2023-04-07T00:11:00.254Z,0.000000
2023-04-07T00:12:00.340Z,0.000000
2023-04-07T00:13:00.270Z,0.000000
2023-04-07T00:14:00.378Z,0.000000
2023-04-07T00:15:02.868Z,0.000000
2023-04-07T00:16:00.430Z,0.000000
2023-04-07T00:17:00.285Z,0.000000
2023-04-07T00:18:00.418Z,0.000000
2023-04-07T00:19:00.304Z,0.000000
2023-04-07T00:20:03.473Z,0.000000
2023-04-07T00:21:00.345Z,0.000000
2023-04-07T00:22:00.382Z,0.000000
2023-04-07T00:23:00.331Z,0.000000
2023-04-07T00:24:00.419Z,0.000000
2023-04-07T00:25:03.086Z,0.000000
2023-04-07T00:26:00.431Z,0.000000
2023-04-07T00:27:00.340Z,0.000000
2023-04-07T00:28:00.402Z,0.000000
2023-04-07T00:29:00.345Z,0.000000
2023-04-07T00:30:04.856Z,0.000000
2023-04-07T00:31:00.404Z,0.000000
2023-04-07T00:32:00.509Z,0.000000
2023-04-07T00:33:00.427Z,0.000000
2023-04-07T00:34:00.435Z,0.000000
2023-04-07T00:35:02.974Z,0.000000
2023-04-07T00:36:00.526Z,0.000000
2023-04-07T00:37:00.376Z,0.000000
2023-04-07T00:38:00.496Z,0.000000
2023-04-07T00:39:00.416Z,0.000000
2023-04-07T00:40:03.627Z,0.000000
2023-04-07T00:41:00.417Z,0.000000
2023-04-07T00:42:00.491Z,0.000000
2023-04-07T00:43:00.404Z,0.000000
2023-04-07T00:44:00.499Z,0.000000
2023-04-07T00:45:03.819Z,0.000000
2023-04-07T00:46:00.567Z,0.000000
2023-04-07T00:47:00.419Z,0.000000
2023-04-07T00:48:00.576Z,0.000000
2023-04-07T00:49:00.434Z,0.000000
2023-04-07T00:50:03.474Z,0.000000
2023-04-07T00:51:00.452Z,0.000000
2023-04-07T00:52:00.532Z,0.000000
2023-04-07T00:53:00.454Z,0.000000
2023-04-07T00:54:00.536Z,0.000000
2023-04-07T00:55:03.175Z,0.000000
2023-04-07T00:56:00.564Z,0.000000
2023-04-07T00:57:00.482Z,0.000000
2023-04-07T00:58:00.539Z,0.000000
2023-04-07T00:59:00.472Z,0.000000
2023-04-07T01:00:04.901Z,0.000000
2023-04-07T01:01:00.511Z,0.000000
2023-04-07T01:02:00.774Z,0.000000
2023-04-07T01:03:00.882Z,0.000000
2023-04-07T01:04:00.897Z,0.000000
2023-04-07T01:05:03.305Z,0.000000
2023-04-07T01:06:00.622Z,0.000000
2023-04-07T01:07:00.559Z,0.000000
2023-04-07T01:08:00.697Z,0.000000
2023-04-07T01:09:00.565Z,0.000000
2023-04-07T01:10:03.762Z,0.000000
2023-04-07T01:11:00.592Z,0.000000
2023-04-07T01:12:02.188Z,0.000000
2023-04-07T01:13:00.618Z,0.000000
2023-04-07T01:14:00.705Z,0.000000
2023-04-07T01:15:03.191Z,0.000000
2023-04-07T01:16:00.741Z,0.000000
2023-04-07T01:17:00.635Z,0.000000
2023-04-07T01:18:00.770Z,0.000000
2023-04-07T01:19:00.638Z,0.000000
2023-04-07T01:20:03.701Z,0.000000
2023-04-07T01:21:00.650Z,0.000000
2023-04-07T01:22:00.718Z,0.000000
2023-04-07T01:23:00.654Z,0.000000
2023-04-07T01:24:00.775Z,0.000000
2023-04-07T01:25:03.269Z,0.000000
2023-04-07T01:26:00.774Z,0.000000
2023-04-07T01:27:00.688Z,0.000000
2023-04-07T01:28:00.758Z,0.000000
2023-04-07T01:29:00.667Z,0.000000
2023-04-07T01:30:03.794Z,0.000000
2023-04-07T01:31:00.704Z,0.000000
2023-04-07T01:32:02.275Z,0.000000
2023-04-07T01:33:00.834Z,0.000000
2023-04-07T01:34:00.778Z,0.000000
2023-04-07T01:35:03.312Z,0.000000
2023-04-07T01:36:00.805Z,0.000000
2023-04-07T01:37:00.753Z,0.000000
2023-04-07T01:38:00.844Z,0.000000
2023-04-07T01:39:00.765Z,0.000000
2023-04-07T01:40:04.492Z,0.000000
2023-04-07T01:41:00.737Z,0.000000
2023-04-07T01:42:00.820Z,0.000000
2023-04-07T01:43:00.765Z,0.000000
2023-04-07T01:44:00.847Z,0.000000
2023-04-07T01:45:03.390Z,0.000000
2023-04-07T01:46:02.210Z,0.000000
2023-04-07T01:47:00.859Z,0.000000
2023-04-07T01:48:00.923Z,0.000000
2023-04-07T01:49:00.779Z,0.000000
2023-04-07T01:50:03.779Z,0.000000
2023-04-07T01:51:00.835Z,0.000000
2023-04-07T01:52:00.888Z,0.000000
2023-04-07T01:53:00.828Z,0.000000
2023-04-07T01:54:00.909Z,0.000000
2023-04-07T01:55:03.423Z,0.000000
2023-04-07T01:56:01.079Z,0.000000
2023-04-07T01:57:00.857Z,0.000000
2023-04-07T01:58:00.887Z,0.000000
2023-04-07T01:59:00.843Z,0.000000
2023-04-07T02:00:03.942Z,0.000000
2023-04-07T02:01:00.915Z,0.000000
2023-04-07T02:02:01.093Z,0.000000
2023-04-07T02:03:00.980Z,0.000000
2023-04-07T02:04:01.059Z,0.000000
2023-04-07T02:05:03.552Z,0.000000
2023-04-07T02:06:00.968Z,0.000000
2023-04-07T02:07:00.923Z,0.000000
2023-04-07T02:08:00.986Z,0.000000
2023-04-07T02:09:00.920Z,0.000000
2023-04-07T02:10:04.225Z,0.000000
2023-04-07T02:11:00.929Z,0.000000
2023-04-07T02:12:01.042Z,0.000000
2023-04-07T02:13:00.940Z,0.000000
2023-04-07T02:14:02.218Z,0.000000
2023-04-07T02:15:03.496Z,0.000000
2023-04-07T02:16:01.037Z,0.000000
2023-04-07T02:17:00.936Z,0.000000
2023-04-07T02:18:01.125Z,0.000000
2023-04-07T02:19:00.955Z,0.000000
2023-04-07T02:20:04.088Z,0.000000
2023-04-07T02:21:00.999Z,0.000000
2023-04-07T02:22:01.059Z,0.000000
2023-04-07T02:23:00.981Z,0.000000
2023-04-07T02:24:01.090Z,0.000000
2023-04-07T02:25:03.589Z,0.000000
2023-04-07T02:26:01.083Z,0.000000
2023-04-07T02:27:01.006Z,0.000000
2023-04-07T02:28:02.219Z,0.000000
2023-04-07T02:29:00.994Z,0.000000
2023-04-07T02:30:04.575Z,0.000000
2023-04-07T02:31:01.032Z,0.000000
2023-04-07T02:32:02.327Z,0.000000
2023-04-07T02:33:01.114Z,0.000000
2023-04-07T02:34:08.305Z,0.000000
2023-04-07T02:35:04.761Z,0.000000
2023-04-07T02:36:01.164Z,0.000000
2023-04-07T02:37:01.100Z,0.000000
2023-04-07T02:38:01.167Z,0.000000
2023-04-07T02:39:01.097Z,0.000000
2023-04-07T02:40:03.924Z,0.000000
2023-04-07T02:41:01.128Z,0.000000
2023-04-07T02:42:01.210Z,0.000000
2023-04-07T02:43:01.117Z,0.000000
2023-04-07T02:44:01.229Z,0.000000
2023-04-07T02:45:03.872Z,0.000000
2023-04-07T02:46:02.276Z,0.000000
2023-04-07T02:47:01.160Z,0.000000
2023-04-07T02:48:01.272Z,0.000000
2023-04-07T02:49:01.169Z,0.000000
2023-04-07T02:50:04.190Z,0.000000
2023-04-07T02:51:01.232Z,0.000000
2023-04-07T02:52:01.261Z,0.000000
2023-04-07T02:53:01.169Z,0.000000
2023-04-07T02:54:01.261Z,0.000000
2023-04-07T02:55:03.701Z,0.000000
2023-04-07T02:56:00.268Z,0.000000
2023-04-07T02:57:00.201Z,0.000000
2023-04-07T02:58:00.269Z,0.000000
2023-04-07T02:59:00.196Z,0.000000
2023-04-07T03:00:04.747Z,0.000000
2023-04-07T03:01:00.270Z,0.000000
2023-04-07T03:02:00.484Z,0.000000
2023-04-07T03:03:00.375Z,0.000000
2023-04-07T03:04:00.393Z,0.000000
2023-04-07T03:05:02.915Z,0.000000
2023-04-07T03:06:00.335Z,0.000000
2023-04-07T03:07:00.252Z,0.000000
2023-04-07T03:08:00.356Z,0.000000
2023-04-07T03:09:00.286Z,0.000000
2023-04-07T03:10:03.208Z,0.000000
2023-04-07T03:11:00.278Z,0.000000
2023-04-07T03:12:01.400Z,0.000000
2023-04-07T03:13:00.301Z,0.000000
2023-04-07T03:14:00.404Z,0.000000
2023-04-07T03:15:02.951Z,0.000000
2023-04-07T03:16:01.503Z,0.000000
2023-04-07T03:17:00.380Z,0.000000
2023-04-07T03:18:00.467Z,0.000000
2023-04-07T03:19:00.326Z,0.000000
2023-04-07T03:20:03.548Z,0.000000
2023-04-07T03:21:00.337Z,0.000000
2023-04-07T03:22:00.419Z,0.000000
2023-04-07T03:23:00.344Z,0.000000
2023-04-07T03:24:01.340Z,0.000000
2023-04-07T03:25:02.967Z,0.000000
2023-04-07T03:26:00.460Z,0.000000
2023-04-07T03:27:00.367Z,0.000000
2023-04-07T03:28:00.434Z,0.000000
2023-04-07T03:29:00.383Z,0.000000
2023-04-07T03:30:04.441Z,0.000000
2023-04-07T03:31:00.456Z,0.000000
2023-04-07T03:32:01.359Z,0.000000
2023-04-07T03:33:00.461Z,0.000000
2023-04-07T03:34:00.526Z,0.000000
2023-04-07T03:35:02.986Z,0.000000
2023-04-07T03:36:01.379Z,0.000000
2023-04-07T03:37:00.438Z,0.000000
2023-04-07T03:38:00.692Z,0.000000
2023-04-07T03:39:00.460Z,0.000000
2023-04-07T03:40:03.717Z,0.000000
2023-04-07T03:41:00.475Z,0.000000
2023-04-07T03:42:00.536Z,0.000000
2023-04-07T03:43:00.486Z,0.000000
2023-04-07T03:44:00.607Z,0.000000
2023-04-07T03:45:03.077Z,0.000000
2023-04-07T03:46:00.635Z,0.000000
2023-04-07T03:47:00.504Z,0.000000
2023-04-07T03:48:00.635Z,0.000000
2023-04-07T03:49:00.509Z,0.000000
2023-04-07T03:50:05.027Z,0.000000
2023-04-07T03:51:00.571Z,0.000000
2023-04-07T03:52:00.602Z,0.000000
2023-04-07T03:53:00.532Z,0.000000
2023-04-07T03:54:01.338Z,0.000000
2023-04-07T03:55:03.163Z,0.000000
2023-04-07T03:56:00.639Z,0.000000
2023-04-07T03:57:00.582Z,0.000000
2023-04-07T03:58:00.635Z,0.000000
2023-04-07T03:59:00.570Z,0.000000
2023-04-07T04:00:04.223Z,0.000000
2023-04-07T04:01:00.618Z,0.000000
2023-04-07T04:02:00.764Z,0.000000
2023-04-07T04:03:00.805Z,0.000000
2023-04-07T04:04:00.915Z,0.000000
2023-04-07T04:05:03.248Z,0.000000
2023-04-07T04:06:00.747Z,0.000000
2023-04-07T04:07:00.646Z,0.000000
2023-04-07T04:08:01.364Z,0.000000
2023-04-07T04:09:00.648Z,0.000000
2023-04-07T04:10:03.825Z,0.000000
2023-04-07T04:11:00.669Z,0.000000
2023-04-07T04:12:01.378Z,0.000000
2023-04-07T04:13:00.693Z,0.000000
2023-04-07T04:14:00.756Z,0.000000
2023-04-07T04:15:03.259Z,0.000000
2023-04-07T04:16:01.594Z,0.000000
2023-04-07T04:17:00.712Z,0.000000
2023-04-07T04:18:00.887Z,0.000000
2023-04-07T04:19:00.711Z,0.000000
2023-04-07T04:20:04.064Z,0.000000
2023-04-07T04:21:00.717Z,0.000000
2023-04-07T04:22:00.825Z,0.000000
2023-04-07T04:23:00.735Z,0.000000
2023-04-07T04:24:01.393Z,0.000000
2023-04-07T04:25:04.248Z,0.000000
2023-04-07T04:26:00.818Z,0.000000
2023-04-07T04:27:00.765Z,0.000000
2023-04-07T04:33:31.268Z,0.000000
2023-04-07T04:34:00.886Z,0.000000
2023-04-07T04:35:03.430Z,0.000000
2023-04-07T04:36:00.927Z,0.000000
2023-04-07T04:37:00.809Z,0.000000
2023-04-07T04:38:00.880Z,0.000000
2023-04-07T04:39:00.869Z,0.000000
2023-04-07T04:40:04.073Z,0.000000
2023-04-07T04:41:00.864Z,0.000000
2023-04-07T04:42:01.988Z,0.000000
2023-04-07T04:43:00.869Z,0.000000
2023-04-07T04:44:00.928Z,2.000000
2023-04-07T04:45:03.534Z,2.000000
2023-04-07T04:46:00.928Z,2.000000
2023-04-07T04:47:00.917Z,4.100000
2023-04-07T04:48:00.973Z,4.100000
2023-04-07T04:49:00.898Z,4.100000
2023-04-07T04:50:03.910Z,4.100000
2023-04-07T04:51:00.921Z,4.100000
2023-04-07T04:52:00.973Z,4.100000
2023-04-07T04:53:00.885Z,6.100000
2023-04-07T04:54:00.956Z,6.100000
2023-04-07T04:55:03.662Z,10.200000
2023-04-07T04:56:00.980Z,10.200000
2023-04-07T04:57:00.939Z,12.200000
2023-04-07T04:58:00.981Z,12.200000
2023-04-07T04:59:00.936Z,12.200000
2023-04-07T05:00:05.856Z,20.300000
2023-04-07T05:01:00.946Z,20.300000
2023-04-07T05:02:01.118Z,20.300000
2023-04-07T05:03:01.246Z,18.300000
2023-04-07T05:04:01.191Z,18.300000
2023-04-07T05:05:03.767Z,18.300000
2023-04-07T05:06:01.037Z,18.300000
2023-04-07T05:07:00.964Z,28.500000
2023-04-07T05:08:01.056Z,28.500000
2023-04-07T05:09:01.024Z,28.500000
2023-04-07T05:10:04.661Z,42.700000
2023-04-07T05:11:00.983Z,42.700000
2023-04-07T05:12:01.056Z,42.700000
2023-04-07T05:13:00.994Z,44.700000
2023-04-07T05:14:01.073Z,44.700000
2023-04-07T05:15:03.673Z,44.700000
2023-04-07T05:16:01.166Z,57.000000
2023-04-07T05:17:01.012Z,57.000000
2023-04-07T05:18:01.185Z,59.000000
2023-04-07T05:19:01.036Z,59.000000
2023-04-07T05:20:06.472Z,73.200000
2023-04-07T05:21:01.048Z,73.200000
2023-04-07T05:22:01.133Z,73.200000
2023-04-07T05:23:01.062Z,71.200000
2023-04-07T05:24:01.153Z,71.200000
2023-04-07T05:25:03.718Z,87.500000
2023-04-07T05:26:01.215Z,87.500000
2023-04-07T05:27:01.087Z,87.500000
2023-04-07T05:28:01.144Z,97.600000
2023-04-07T05:29:01.084Z,97.600000
2023-04-07T05:30:04.844Z,124.100000
2023-04-07T05:31:01.090Z,124.100000
2023-04-07T05:32:01.253Z,124.100000
2023-04-07T05:33:01.164Z,124.100000
2023-04-07T05:34:01.168Z,124.100000
2023-04-07T05:35:04.093Z,124.100000
2023-04-07T05:36:01.263Z,148.500000
2023-04-07T05:37:01.110Z,148.500000
2023-04-07T05:38:01.210Z,156.600000
2023-04-07T05:39:01.131Z,156.600000
2023-04-07T05:40:04.967Z,172.900000
2023-04-07T05:41:01.136Z,172.900000
2023-04-07T05:42:01.210Z,185.100000
2023-04-07T05:43:01.132Z,185.100000
2023-04-07T05:44:01.390Z,185.100000
2023-04-07T05:45:03.915Z,183.100000
2023-04-07T05:46:01.282Z,183.100000
2023-04-07T05:47:01.172Z,183.100000
2023-04-07T05:48:01.278Z,170.900000
2023-04-07T05:49:16.776Z,170.900000
2023-04-07T05:50:05.303Z,187.100000
2023-04-07T05:51:01.176Z,187.100000
2023-04-07T05:52:01.309Z,203.400000
2023-04-07T05:53:00.184Z,203.400000
2023-04-07T05:54:03.408Z,203.400000
2023-04-07T05:55:03.038Z,185.100000
2023-04-07T05:56:00.296Z,185.100000
2023-04-07T05:57:00.221Z,185.100000
2023-04-07T05:58:00.289Z,189.200000
2023-04-07T05:59:00.205Z,189.200000
2023-04-07T06:00:03.380Z,209.500000
2023-04-07T06:01:00.235Z,209.500000
2023-04-07T06:02:00.456Z,209.500000
2023-04-07T06:03:00.440Z,238.000000
2023-04-07T06:04:00.382Z,238.000000
2023-04-07T06:05:03.112Z,238.000000
2023-04-07T06:06:00.359Z,225.800000
2023-04-07T06:07:00.267Z,225.800000
2023-04-07T06:08:00.414Z,225.800000
2023-04-07T06:09:00.303Z,225.800000
2023-04-07T06:10:03.352Z,225.800000
2023-04-07T06:11:00.298Z,195.300000
2023-04-07T06:12:00.384Z,195.300000
2023-04-07T06:13:00.315Z,195.300000
2023-04-07T06:14:00.419Z,252.200000
2023-04-07T06:15:03.798Z,252.200000
2023-04-07T06:16:00.387Z,307.100000
2023-04-07T06:17:00.419Z,307.100000
2023-04-07T06:18:00.464Z,307.100000
2023-04-07T06:19:00.321Z,323.400000
2023-04-07T06:20:03.460Z,323.400000
2023-04-07T06:21:00.349Z,315.300000
2023-04-07T06:22:00.409Z,315.300000
2023-04-07T06:23:00.354Z,315.300000
2023-04-07T06:24:00.447Z,351.900000
2023-04-07T06:25:03.584Z,351.900000
2023-04-07T06:26:00.460Z,356.000000
2023-04-07T06:27:00.374Z,327.500000
2023-04-07T06:28:00.444Z,327.500000
2023-04-07T06:29:00.368Z,313.200000
2023-04-07T06:30:05.146Z,313.200000
2023-04-07T06:31:00.404Z,313.200000
2023-04-07T06:32:00.502Z,343.700000
2023-04-07T06:33:00.431Z,343.700000
2023-04-07T06:34:00.475Z,364.100000
2023-04-07T06:35:03.886Z,364.100000
2023-04-07T06:36:00.499Z,364.100000
2023-04-07T06:37:00.473Z,364.100000
2023-04-07T06:38:00.553Z,364.100000
2023-04-07T06:39:00.422Z,419.000000
2023-04-07T06:40:03.447Z,419.000000
2023-04-07T06:41:00.432Z,419.000000
2023-04-07T06:42:00.529Z,419.000000
2023-04-07T06:43:00.480Z,419.000000
2023-04-07T06:44:00.566Z,443.400000
2023-04-07T06:45:03.097Z,443.400000
2023-04-07T06:46:00.591Z,443.400000
2023-04-07T06:47:00.485Z,480.000000
2023-04-07T06:48:00.697Z,480.000000
2023-04-07T06:49:00.510Z,484.100000
2023-04-07T06:50:03.536Z,484.100000
2023-04-07T06:51:00.536Z,484.100000
2023-04-07T06:52:00.578Z,504.400000
2023-04-07T06:53:00.520Z,504.400000
2023-04-07T06:54:00.634Z,524.800000
2023-04-07T06:55:03.232Z,524.800000
2023-04-07T06:56:00.656Z,524.800000
2023-04-07T06:57:00.560Z,545.100000
2023-04-07T06:58:00.644Z,545.100000
2023-04-07T06:59:00.563Z,573.600000
2023-04-07T07:00:03.659Z,573.600000
2023-04-07T07:01:00.623Z,628.500000
2023-04-07T07:02:00.721Z,628.500000
2023-04-07T07:03:01.127Z,628.500000
2023-04-07T07:04:00.743Z,718.000000
2023-04-07T07:05:03.299Z,718.000000
2023-04-07T07:06:00.677Z,718.000000
2023-04-07T07:07:00.582Z,766.800000
2023-04-07T07:08:00.695Z,766.800000
2023-04-07T07:09:00.621Z,844.100000
2023-04-07T07:10:04.436Z,844.100000
2023-04-07T07:11:00.627Z,840.000000
2023-04-07T07:12:01.927Z,840.000000
2023-04-07T07:13:00.667Z,840.000000
2023-04-07T07:14:00.736Z,827.800000
2023-04-07T07:15:03.191Z,827.800000
2023-04-07T07:16:00.862Z,827.800000
2023-04-07T07:17:00.650Z,876.700000
2023-04-07T07:18:00.825Z,876.700000
2023-04-07T07:19:00.665Z,882.800000
2023-04-07T07:20:03.775Z,882.800000
2023-04-07T07:21:00.702Z,882.800000
2023-04-07T07:22:00.750Z,1047.500000
2023-04-07T07:23:00.695Z,1047.500000
2023-04-07T07:24:00.756Z,1010.900000
2023-04-07T07:25:03.396Z,1010.900000
2023-04-07T07:26:00.790Z,1010.900000
2023-04-07T07:27:00.707Z,1236.700000
2023-04-07T07:36:54.165Z,937.700000
2023-04-07T07:37:00.756Z,937.700000
2023-04-07T07:38:03.956Z,937.700000
2023-04-07T07:39:00.783Z,1124.800000
2023-04-07T07:40:04.683Z,1124.800000
2023-04-07T07:41:00.773Z,1124.800000
2023-04-07T07:42:04.009Z,1161.400000
2023-04-07T07:43:00.779Z,1161.400000
2023-04-07T07:44:03.973Z,1163.400000
2023-04-07T07:45:03.713Z,1163.400000
2023-04-07T07:46:04.009Z,1163.400000
2023-04-07T07:47:00.793Z,1346.500000
2023-04-07T07:48:01.989Z,1346.500000
2023-04-07T07:49:00.805Z,1346.500000
2023-04-07T07:50:04.238Z,1322.100000
2023-04-07T07:51:00.847Z,1322.100000
2023-04-07T07:52:00.927Z,1291.600000
2023-04-07T07:53:00.838Z,1291.600000
2023-04-07T07:54:04.089Z,1291.600000
2023-04-07T07:55:03.496Z,1588.600000
2023-04-07T07:56:00.913Z,1588.600000
2023-04-07T07:57:00.850Z,1588.600000
2023-04-07T07:58:04.091Z,1588.600000
2023-04-07T07:59:00.877Z,1588.600000
2023-04-07T08:00:05.416Z,1745.000000
2023-04-07T08:01:00.873Z,1745.000000
2023-04-07T08:02:04.095Z,1725.000000
2023-04-07T08:03:00.994Z,1725.000000
2023-04-07T08:04:04.065Z,1725.000000
2023-04-07T08:05:04.302Z,1924.000000
2023-04-07T08:06:00.978Z,1924.000000
2023-04-07T08:07:00.924Z,1924.000000
2023-04-07T08:08:02.077Z,1924.000000
2023-04-07T08:09:00.922Z,1924.000000
2023-04-07T08:10:19.177Z,1955.000000
2023-04-07T08:11:00.930Z,1955.000000
2023-04-07T08:12:34.125Z,1963.000000
2023-04-07T08:13:00.949Z,1963.000000
2023-04-07T08:14:01.093Z,1963.000000
2023-04-07T08:15:03.721Z,1987.000000
2023-04-07T08:16:01.228Z,1987.000000
2023-04-07T08:17:00.959Z,2032.000000
2023-04-07T08:18:02.282Z,2032.000000
2023-04-07T08:19:00.986Z,2032.000000
2023-04-07T08:20:04.285Z,1997.000000
2023-04-07T08:21:00.997Z,1997.000000
2023-04-07T08:22:01.087Z,1922.000000
2023-04-07T08:23:01.001Z,1922.000000
2023-04-07T08:24:01.082Z,1922.000000
2023-04-07T08:25:03.600Z,2012.000000
2023-04-07T08:26:01.061Z,2012.000000
2023-04-07T08:27:01.009Z,1908.000000
2023-04-07T08:28:01.119Z,1908.000000
2023-04-07T08:29:01.005Z,1908.000000
2023-04-07T08:30:04.095Z,2105.000000
2023-04-07T08:31:01.050Z,2105.000000
2023-04-07T08:32:01.104Z,2105.000000
2023-04-07T08:33:01.176Z,1963.000000
2023-04-07T08:34:01.111Z,1963.000000
2023-04-07T08:35:03.641Z,1926.000000
2023-04-07T08:36:01.196Z,1926.000000
2023-04-07T08:37:01.062Z,1926.000000
2023-04-07T08:38:01.123Z,1969.000000
2023-04-07T08:39:01.081Z,1969.000000
2023-04-07T08:40:04.576Z,2052.000000
2023-04-07T08:41:01.062Z,2052.000000
2023-04-07T08:42:01.174Z,2052.000000
2023-04-07T08:43:01.063Z,2052.000000
2023-04-07T08:44:01.132Z,2052.000000
2023-04-07T08:45:04.047Z,2122.000000
2023-04-07T08:46:01.183Z,2122.000000
2023-04-07T08:47:01.132Z,2122.000000
2023-04-07T08:48:01.225Z,2294.000000
2023-04-07T08:49:01.094Z,2294.000000
2023-04-07T08:50:04.587Z,2545.000000
2023-04-07T08:51:01.129Z,2545.000000
2023-04-07T08:52:01.875Z,2414.000000
2023-04-07T08:53:01.119Z,2414.000000
2023-04-07T08:54:01.214Z,2414.000000
2023-04-07T08:55:03.739Z,2148.000000
2023-04-07T08:56:01.247Z,2148.000000
2023-04-07T08:57:01.148Z,2148.000000
2023-04-07T08:58:02.209Z,2056.000000
2023-04-07T08:59:01.150Z,2056.000000
2023-04-07T09:00:05.582Z,1967.000000
2023-04-07T09:01:00.227Z,1967.000000
2023-04-07T09:02:01.764Z,2138.000000
2023-04-07T09:03:00.273Z,2138.000000
2023-04-07T09:04:00.377Z,2138.000000
2023-04-07T09:05:10.541Z,2406.000000
2023-04-07T09:06:00.690Z,2406.000000
2023-04-07T09:07:00.220Z,2406.000000
2023-04-07T09:08:01.254Z,2313.000000
2023-04-07T09:09:00.227Z,2313.000000
2023-04-07T09:10:04.089Z,2313.000000
2023-04-07T09:11:00.221Z,2274.000000
2023-04-07T09:12:02.333Z,2274.000000
2023-04-07T09:13:00.254Z,2337.000000
2023-04-07T09:14:00.616Z,2337.000000
2023-04-07T09:15:02.928Z,2286.000000
2023-04-07T09:16:01.492Z,2286.000000
2023-04-07T09:17:00.336Z,2286.000000
2023-04-07T09:18:00.402Z,2551.000000
2023-04-07T09:19:00.269Z,2551.000000
2023-04-07T09:20:03.944Z,2551.000000
2023-04-07T09:21:00.409Z,2400.000000
2023-04-07T09:22:00.551Z,2400.000000
2023-04-07T09:23:00.290Z,2325.000000
2023-04-07T09:24:00.371Z,2325.000000
2023-04-07T09:25:03.140Z,2359.000000
2023-04-07T09:26:00.373Z,2359.000000
2023-04-07T09:27:00.320Z,2359.000000
2023-04-07T09:28:00.470Z,2060.000000
2023-04-07T09:29:00.338Z,2060.000000
2023-04-07T09:30:03.523Z,2060.000000
2023-04-07T09:31:00.348Z,2012.000000
2023-04-07T09:32:00.451Z,2012.000000
2023-04-07T09:33:00.416Z,2012.000000
2023-04-07T09:34:00.442Z,1995.000000
2023-04-07T09:35:03.084Z,1995.000000
2023-04-07T09:36:00.495Z,2189.000000
2023-04-07T09:37:00.381Z,2189.000000
2023-04-07T09:38:00.440Z,2256.000000
2023-04-07T09:39:00.402Z,2256.000000
2023-04-07T09:40:03.385Z,2256.000000
2023-04-07T09:41:00.420Z,2256.000000
2023-04-07T09:42:00.477Z,2256.000000
2023-04-07T09:43:00.403Z,2256.000000
2023-04-07T09:44:00.642Z,2860.000000
2023-04-07T09:45:03.072Z,2860.000000
2023-04-07T09:46:00.563Z,3250.000000
2023-04-07T09:47:00.428Z,3250.000000
2023-04-07T09:48:00.539Z,3419.000000
2023-04-07T09:49:00.418Z,3419.000000
2023-04-07T09:50:03.711Z,3419.000000
2023-04-07T09:51:00.452Z,3643.000000
2023-04-07T09:52:00.559Z,3643.000000
2023-04-07T09:53:00.469Z,3643.000000
2023-04-07T09:54:00.555Z,3787.000000
2023-04-07T09:55:03.846Z,3787.000000
2023-04-07T09:56:00.574Z,3787.000000
2023-04-07T09:57:00.499Z,3494.000000
2023-04-07T09:58:00.575Z,3494.000000
2023-04-07T09:59:00.489Z,3149.000000
2023-04-07T10:00:03.604Z,3149.000000
2023-04-07T10:01:00.554Z,3165.000000
2023-04-07T10:02:00.887Z,3165.000000
2023-04-07T10:03:00.710Z,3165.000000
2023-04-07T10:04:00.672Z,3610.000000
2023-04-07T10:05:03.301Z,3610.000000
2023-04-07T10:06:00.646Z,4156.000000
2023-04-07T10:07:00.571Z,4156.000000
2023-04-07T10:08:00.636Z,4156.000000
2023-04-07T10:09:00.574Z,4248.000000
2023-04-07T10:10:03.775Z,4248.000000
2023-04-07T10:11:00.576Z,4159.000000
2023-04-07T10:12:00.672Z,4159.000000
2023-04-07T10:13:00.580Z,3867.000000
2023-04-07T10:14:00.688Z,3836.000000
2023-04-07T10:15:03.332Z,3836.000000
2023-04-07T10:16:00.690Z,3836.000000
2023-04-07T10:17:00.636Z,4129.000000
2023-04-07T10:18:00.734Z,4129.000000
2023-04-07T10:19:00.618Z,4072.000000
2023-04-07T10:20:05.135Z,4072.000000
2023-04-07T10:21:00.639Z,3867.000000
2023-04-07T10:22:00.738Z,3867.000000
2023-04-07T10:23:00.637Z,3919.000000
2023-04-07T10:24:00.725Z,3919.000000
2023-04-07T10:25:04.886Z,3919.000000
2023-04-07T10:26:00.736Z,3833.000000
2023-04-07T10:27:00.673Z,3833.000000
2023-04-07T10:28:00.924Z,3833.000000
2023-04-07T10:29:00.659Z,3845.000000
2023-04-07T10:30:03.968Z,3845.000000
2023-04-07T10:31:00.840Z,3919.000000
2023-04-07T10:32:00.898Z,3919.000000
2023-04-07T10:33:00.762Z,3919.000000
2023-04-07T10:34:00.801Z,3919.000000
2023-04-07T10:35:03.249Z,3919.000000
2023-04-07T10:36:00.824Z,3647.000000
2023-04-07T10:37:00.725Z,3647.000000
2023-04-07T10:38:00.824Z,3647.000000
2023-04-07T10:39:00.719Z,3875.000000
2023-04-07T10:40:03.891Z,3875.000000
2023-04-07T10:41:00.737Z,3913.000000
2023-04-07T10:42:00.828Z,3913.000000
2023-04-07T10:43:00.752Z,3814.000000
2023-04-07T10:44:00.837Z,3814.000000
2023-04-07T10:45:03.327Z,3814.000000
2023-04-07T10:46:00.903Z,3718.000000
2023-04-07T10:47:00.833Z,3718.000000
2023-04-07T10:48:00.919Z,3718.000000
2023-04-07T10:49:00.768Z,3525.000000
2023-04-07T10:50:04.808Z,3525.000000
2023-04-07T10:51:00.813Z,3525.000000
2023-04-07T10:52:00.891Z,3354.000000
2023-04-07T10:53:00.798Z,3354.000000
2023-04-07T10:54:00.893Z,3299.000000
2023-04-07T10:55:03.478Z,3299.000000
2023-04-07T10:56:00.909Z,3295.000000
2023-04-07T10:57:00.835Z,3295.000000
2023-04-07T10:58:00.919Z,3295.000000
2023-04-07T10:59:00.818Z,3061.000000
2023-04-07T11:00:03.898Z,3061.000000
2023-04-07T11:01:00.870Z,3061.000000
2023-04-07T11:02:00.982Z,2923.000000
2023-04-07T11:03:01.034Z,2923.000000
2023-04-07T11:04:01.142Z,2768.000000
2023-04-07T11:05:04.008Z,2768.000000
2023-04-07T11:06:00.966Z,2752.000000
2023-04-07T11:07:00.869Z,2752.000000
2023-04-07T11:08:00.952Z,2752.000000
2023-04-07T11:09:00.900Z,2357.000000
2023-04-07T11:10:04.524Z,2357.000000
2023-04-07T11:11:00.891Z,2357.000000
2023-04-07T11:12:00.979Z,2756.000000
2023-04-07T11:13:00.904Z,2756.000000
2023-04-07T11:14:00.970Z,2756.000000
2023-04-07T11:15:03.566Z,2756.000000
2023-04-07T11:16:01.033Z,2756.000000
2023-04-07T11:17:00.908Z,2998.000000
2023-04-07T11:18:01.013Z,2998.000000
2023-04-07T11:19:00.955Z,3071.000000
2023-04-07T11:20:05.367Z,3120.000000
2023-04-07T11:21:00.943Z,3120.000000
2023-04-07T11:22:01.060Z,3120.000000
2023-04-07T11:23:00.953Z,3120.000000
2023-04-07T11:24:01.028Z,3120.000000
2023-04-07T11:25:03.613Z,3000.000000
2023-04-07T11:26:01.037Z,3000.000000
2023-04-07T11:27:00.975Z,3023.000000
2023-04-07T11:28:01.086Z,3023.000000